CPX780 Details

Departure: Incheon International Airport (RKSI)
Arrival: Taiwan Taoyuan International Airport (RCTP)
Route: BOPTA1K BOPTA Z51 BEDES Y711 MUGUS Y742 SALMI Q11 DRAKE DRAKE1B


Current Weather Information
RKSI 221230Z 33015KT CAVOK 04/M08 Q1022 NOSIG
RCTP 221230Z 05022KT 9999 -RA FEW006 BKN009 BKN016 17/16 Q1016 NOSIG RMK A3003